« 観桜 陸自高田駐屯地 2012/4/22 sun | トップページ | 旧米軍試射場跡 内灘町 2012/4/14 sat »

2012/04/24

定点 小松飛行場 2012/4/20 fri

朝4時起きで、CLXのルクセンブルグ出発を確認した。当初予定を変更して行先は小松決定。寝直すのも面倒なので、そのまま下道でのんびりと小松を目指した。

といっても、いつもより早く7時前に到着。ファイターは飛ばない日なのに、早くからデッキで記録を開始した。

20120421_rjnk_00a

4月初旬の暴風で、Tの字が吹っ飛んでいましたが、綺麗にそろいました。

20120421_rjnk_00aja8996

朝の活動は、#4でお泊りのJTA機を#5に移動から。

METAR RJNK 202300Z VRB02KT 9999 SCT300 15/07 Q1023 RMK A3023

20120421_rjnk_00ja8677

20120421_rjnk_01ja8677

ANA752 RJNK-RJTT JA8677 B767-381

20120421_rjnk_02ja8364

20120421_rjnk_03ja8364

JAL1270 RJNK-RJTT JA8364 B767-346

20120421_rjnk_04ja02rj

20120421_rjnk_05ja02rj

IBX16 RJNK-RJAA JA02RJ CRJ-200ER

20120421_rjnk_06ja8198

ANA751 RJTT-RJNK JA8198 B777-281

20120421_rjnk_07jm5055

JM5055 RJTA-RJNK 3-5055 P3C SE55

9時前に厚木からやってきた。どうもリクルートの体験搭乗のようだ。

20120421_rjnk_08ja8365

JAL1273 RJNK-RJTT JA8365 B767-346

20120421_rjnk_09ja8996

JTA031 RJNK-ROAH JA8996 B737-446

20120421_rjnk_10ja305k

ADO89 RJNK-RJCC JA305K B737-54K

20120421_rjnk_11ja8996

JTA031 RJNK-ROAH JA8996 B737-446

20120421_rjnk_12ja305k

ADO89 RJNK-RJCC JA305K B737-54K

20120421_rjnk_13ja08an

20120421_rjnk_14ja08an

ANA316 RJFF-RJNK JA08AN B737-781

AIR NIPPON の表記もいつまで見られるか?風前の灯

20120421_rjnk_15jm5055

20120421_rjnk_16jm5055

一回目のフライトに出発。羽咋から左周りで東尋坊を巡って帰ってくる行程のようです。

20120421_rjnk_17ja8365

JAL1272 RJNK-RJTT JA8365 B767-346

20120421_rjnk_18ja8198

ANA754 RJNK-RJTT JA8198 B767-381

20120421_rjnk_19ja08an

20120421_rjnk_20ja08an

ANA315 RJNK-RJFF JA08AN B737-781

20120421_rjnk_21ja8677

ANA753 RJTT-RJNK JA8677 B767-381

20120421_rjnk_22jm5055

二回目のフライト。一回目と同様

20120421_rjnk_23ja8987

JAL1275 RJTT-RJNK JA8987 B767-346

20120421_rjnk_24ja02rj

IBX17 RJAA-RJNK JA02RJ CRJ-200ER

朝小松から出発した機体が、そのまま折り返してきた。運用が変わったか?

20120421_rjnk_25ja8677

ANA756 RJNK-RJTT JA8677 B767-381

METAR RJNK 210300Z 35010KT 9999 FEW035 BKN250 BKN300 20/07 Q1021 RMK 1CU035 A3018

20120421_rjnk_26jm5055

三回目の到着、これで終了のようです。

20120421_rjnk_27ja8987

JAL1276 RJNK-RJTT JA8987 B767-346

20120421_rjnk_28ja02rj

IBX90 RJNK-RJSS JA02RJ CRJ-200ER

20120421_rjnk_29jm5055

厚木に向かって、帰投です。

20120421_rjnk_30ja56an

ANA969 RJTT-RJNK JA56AN B737-881

AIR NIPPON の表記が消されました。白い空間が増えてチョット、間が抜けた感じ。ANAの表記をもう少し後ろにずらすとバランスが取れそう。

20120421_rjnk_31ja309j

JAL1279 RJTT-RJNK JA309J B737-846

20120421_rjnk_32ja02rj

IBX90 RJSS-RJNK JA02RJ CRJ-200ER

20120421_rjnk_33ja309j

CLX634 ELLX-RJNK LX-VCB B747-8R7F

本日のメイン、カーゴルクスの-8Fが到着です。

->-8F飛来 小松飛行場 2012/4/21 sat

METAR RJNK 210600Z 01011KT 9999 FEW035 BKN230 20/07 Q1019 RMK 1CU035 A3010

20120421_rjnk_34ja309j

JAL1279 RJTT-RJNK JA309J B737-846

20120421_rjnk_35ja02rj

IBX18 RJNK-RJAA JA02RJ CRJ-200ER

20120421_rjnk_36ja56an

20120421_rjnk_37ja56an

ANA970 RJNK-RJTT JA56AN B737-881

20120421_rjnk_38ja704a

ANA755 RJTT-RJNK JA704A B777-281

|

« 観桜 陸自高田駐屯地 2012/4/22 sun | トップページ | 旧米軍試射場跡 内灘町 2012/4/14 sat »

小松飛行場」カテゴリの記事

コメント

コメントを書く



(ウェブ上には掲載しません)


コメントは記事投稿者が公開するまで表示されません。



トラックバック


この記事へのトラックバック一覧です: 定点 小松飛行場 2012/4/20 fri:

« 観桜 陸自高田駐屯地 2012/4/22 sun | トップページ | 旧米軍試射場跡 内灘町 2012/4/14 sat »